Terminal Aerodrome Forecast
Issued by NWS Kansas City/Pleasant Hill, MO

Home | Current Version | Previous Version | Text Only | Print | Product List | Glossary On
Versions: 1 2 3 4 5 6 7 8 9 10 11 12 13 14 15
000
FTUS43 KEAX 262300
TAFMCI
TAF
KMCI 262320Z 2700/2724 01005KT P6SM BKN100
     FM270500 02008KT P6SM VCSH OVC020
      TEMPO 2705/2709 6SM -RA OVC012
     FM271000 01006KT P6SM SCT030=

USA.gov is the U.S. government's official web portal to all federal, state and local government web resources and services.